createdAt,value
2022-07-30T00:01:36.037Z,15.27
2022-07-30T00:04:04.654Z,16.08
2022-07-30T00:06:33.078Z,15.38
2022-07-30T00:09:01.336Z,15.27
2022-07-30T00:11:50.089Z,14.60
2022-07-30T00:14:21.397Z,17.17
2022-07-30T00:16:49.464Z,15.07
2022-07-30T00:19:20.390Z,15.38
2022-07-30T00:21:51.022Z,14.20
2022-07-30T00:24:20.128Z,14.38
2022-07-30T00:26:48.368Z,12.95
2022-07-30T00:29:16.890Z,13.93
2022-07-30T00:31:49.085Z,14.70
2022-07-30T00:34:30.416Z,17.42
2022-07-30T00:36:57.774Z,13.95
2022-07-30T00:39:25.204Z,17.27
2022-07-30T00:42:15.277Z,14.45
2022-07-30T00:44:43.537Z,13.73
2022-07-30T00:47:15.564Z,13.77
2022-07-30T00:49:44.467Z,14.07
2022-07-30T00:52:13.931Z,12.18
2022-07-30T00:54:46.011Z,13.65
2022-07-30T00:57:18.221Z,14.18
2022-07-30T00:59:46.218Z,12.80
2022-07-30T01:02:41.268Z,12.07
2022-07-30T01:05:14.817Z,10.65
2022-07-30T01:07:42.287Z,12.02
2022-07-30T01:10:16.328Z,13.57
2022-07-30T01:13:09.293Z,12.25
2022-07-30T01:15:39.011Z,11.98
2022-07-30T01:18:10.551Z,12.65
2022-07-30T01:20:46.135Z,11.98
2022-07-30T01:23:36.970Z,11.95
2022-07-30T01:26:15.270Z,13.52
2022-07-30T01:28:54.308Z,15.98
2022-07-30T01:31:25.715Z,15.18
2022-07-30T01:34:01.859Z,15.50
2022-07-30T01:36:42.783Z,14.85
2022-07-30T01:39:11.873Z,14.65
2022-07-30T01:41:42.731Z,13.23
2022-07-30T01:44:15.329Z,14.43
2022-07-30T01:46:56.080Z,12.43
2022-07-30T01:49:39.589Z,16.02
2022-07-30T01:52:10.133Z,14.23
2022-07-30T01:54:39.666Z,12.70
2022-07-30T01:57:18.919Z,11.93
2022-07-30T01:59:50.707Z,13.27
2022-07-30T02:02:18.846Z,15.60
2022-07-30T02:04:54.345Z,13.55
2022-07-30T02:07:59.351Z,16.15
2022-07-30T02:10:51.616Z,16.77
2022-07-30T02:13:27.068Z,17.23
2022-07-30T02:16:09.725Z,17.67
2022-07-30T02:19:04.363Z,19.58
2022-07-30T02:21:39.221Z,19.27
2022-07-30T02:24:13.083Z,18.15
2022-07-30T02:26:44.523Z,16.85
2022-07-30T02:29:20.098Z,18.98
2022-07-30T02:31:48.719Z,17.67
2022-07-30T02:34:24.603Z,19.15
2022-07-30T02:36:54.694Z,19.33
2022-07-30T02:39:34.196Z,19.60
2022-07-30T02:42:21.568Z,20.50
2022-07-30T02:45:13.630Z,17.67
2022-07-30T02:47:42.886Z,18.45
2022-07-30T02:50:14.443Z,22.65
2022-07-30T02:52:49.724Z,19.10
2022-07-30T02:55:18.847Z,21.52
2022-07-30T02:57:49.039Z,17.23
2022-07-30T03:00:24.932Z,16.55
2022-07-30T03:02:59.957Z,15.27
2022-07-30T03:05:32.486Z,17.33
2022-07-30T03:08:03.771Z,17.52
2022-07-30T03:10:56.395Z,16.60
2022-07-30T03:13:24.960Z,18.00
2022-07-30T03:15:54.235Z,18.38
2022-07-30T03:18:24.590Z,19.30
2022-07-30T03:20:58.370Z,20.75
2022-07-30T03:26:05.690Z,24.33
2022-07-30T03:28:37.065Z,18.13
2022-07-30T03:31:05.888Z,17.33
2022-07-30T03:33:40.663Z,15.95
2022-07-30T03:36:13.597Z,18.73
2022-07-30T03:38:42.900Z,24.33
2022-07-30T03:41:12.153Z,20.33
2022-07-30T03:43:49.908Z,18.13
2022-07-30T03:46:18.401Z,18.25
2022-07-30T03:48:52.902Z,22.50
2022-07-30T03:51:25.455Z,16.95
2022-07-30T03:54:03.210Z,16.75
2022-07-30T03:56:36.464Z,16.90
2022-07-30T03:59:04.773Z,20.42
2022-07-30T04:01:32.926Z,22.63
2022-07-30T04:04:10.634Z,20.85
2022-07-30T04:06:40.909Z,21.67
2022-07-30T04:09:09.414Z,22.52
2022-07-30T04:11:41.612Z,22.63
2022-07-30T04:14:10.168Z,20.45
2022-07-30T04:16:56.389Z,17.95
2022-07-30T04:19:28.947Z,20.30
2022-07-30T04:21:59.061Z,19.92
2022-07-30T04:24:28.910Z,17.65
2022-07-30T04:26:59.738Z,24.05
2022-07-30T04:29:29.426Z,18.63
2022-07-30T04:31:58.151Z,18.30
2022-07-30T04:34:28.912Z,19.70
2022-07-30T04:37:05.125Z,19.55
2022-07-30T04:39:34.226Z,20.00
2022-07-30T04:42:07.367Z,19.15
2022-07-30T04:44:34.767Z,23.77
2022-07-30T04:47:07.897Z,23.02
2022-07-30T04:49:37.989Z,21.85
2022-07-30T04:52:08.516Z,20.85
2022-07-30T04:54:44.061Z,20.95
2022-07-30T04:57:13.267Z,23.75
2022-07-30T04:59:42.458Z,19.00
2022-07-30T05:02:12.401Z,22.85
2022-07-30T05:04:44.984Z,19.65
2022-07-30T05:07:15.016Z,19.83
2022-07-30T05:09:44.748Z,18.45
2022-07-30T05:12:12.868Z,21.48
2022-07-30T05:14:46.576Z,18.75
2022-07-30T05:17:15.242Z,19.63
2022-07-30T05:19:43.259Z,18.13
2022-07-30T05:22:11.409Z,21.25
2022-07-30T05:24:38.493Z,17.45
2022-07-30T05:27:06.540Z,20.77
2022-07-30T05:29:36.714Z,17.95
2022-07-30T05:32:07.328Z,20.95
2022-07-30T05:34:39.987Z,16.42
2022-07-30T05:37:07.352Z,16.30
2022-07-30T05:40:02.956Z,15.80
2022-07-30T05:42:30.146Z,15.60
2022-07-30T05:44:58.217Z,17.02
2022-07-30T05:47:26.876Z,18.45
2022-07-30T05:50:02.873Z,15.48
2022-07-30T05:52:36.192Z,16.00
2022-07-30T05:55:11.397Z,14.82
2022-07-30T05:57:39.328Z,14.43
2022-07-30T06:00:12.665Z,13.85
2022-07-30T06:02:41.007Z,17.08
2022-07-30T06:05:09.293Z,15.32
2022-07-30T06:07:36.350Z,18.05
2022-07-30T06:10:05.024Z,15.52
2022-07-30T06:12:32.171Z,15.25
2022-07-30T06:14:59.601Z,14.02
2022-07-30T06:17:27.636Z,12.70
2022-07-30T06:19:54.700Z,11.95
2022-07-30T06:22:25.804Z,11.82
2022-07-30T06:24:53.219Z,14.05
2022-07-30T06:27:21.971Z,12.77
2022-07-30T06:29:49.207Z,11.07
2022-07-30T06:32:17.773Z,11.30
2022-07-30T06:34:44.787Z,10.77
2022-07-30T06:37:13.030Z,11.00
2022-07-30T06:39:56.677Z,11.75
2022-07-30T06:42:24.852Z,11.32
2022-07-30T06:44:53.076Z,11.13
2022-07-30T06:47:26.387Z,11.27
2022-07-30T06:49:54.561Z,12.20
2022-07-30T06:52:21.684Z,11.02
2022-07-30T06:54:49.007Z,13.80
2022-07-30T06:57:19.147Z,10.93
2022-07-30T06:59:56.209Z,11.43
2022-07-30T07:02:24.823Z,12.20
2022-07-30T07:04:53.013Z,12.43
2022-07-30T07:07:40.238Z,11.88
2022-07-30T07:10:09.112Z,11.68
2022-07-30T07:12:38.605Z,11.57
2022-07-30T07:15:07.290Z,15.13
2022-07-30T07:17:35.752Z,12.73
2022-07-30T07:20:05.010Z,14.43
2022-07-30T07:22:33.080Z,15.00
2022-07-30T07:25:00.077Z,11.68
2022-07-30T07:27:34.610Z,14.02
2022-07-30T07:30:05.943Z,14.82
2022-07-30T07:32:34.603Z,12.70
2022-07-30T07:35:02.055Z,14.80
2022-07-30T07:37:29.132Z,13.90
2022-07-30T07:39:57.614Z,13.27
2022-07-30T07:42:26.337Z,12.80
2022-07-30T07:44:53.502Z,12.90
2022-07-30T07:47:26.443Z,14.20
2022-07-30T07:50:05.972Z,14.40
2022-07-30T07:52:33.949Z,13.27
2022-07-30T07:55:08.572Z,15.05
2022-07-30T07:57:42.987Z,13.50
2022-07-30T08:00:12.192Z,15.13
2022-07-30T08:02:42.217Z,13.40
2022-07-30T08:05:10.863Z,15.48
2022-07-30T08:07:40.823Z,14.73
2022-07-30T08:10:09.040Z,14.13
2022-07-30T08:12:36.232Z,12.73
2022-07-30T08:15:04.200Z,16.05
2022-07-30T08:17:32.270Z,14.25
2022-07-30T08:20:01.025Z,14.18
2022-07-30T08:22:30.408Z,17.98
2022-07-30T08:24:57.442Z,14.40
2022-07-30T08:27:24.530Z,13.27
2022-07-30T08:29:57.001Z,13.73
2022-07-30T08:32:27.610Z,14.07
2022-07-30T08:34:54.796Z,12.85
2022-07-30T08:37:21.840Z,14.13
2022-07-30T08:39:48.859Z,15.32
2022-07-30T08:42:17.052Z,16.77
2022-07-30T08:45:09.438Z,17.42
2022-07-30T08:47:40.434Z,16.67
2022-07-30T08:50:09.083Z,19.50
2022-07-30T08:52:37.936Z,18.70
2022-07-30T08:55:05.860Z,19.30
2022-07-30T08:57:35.571Z,17.65
2022-07-30T09:00:10.273Z,21.85
2022-07-30T09:02:38.313Z,20.80
2022-07-30T09:05:06.512Z,18.55
2022-07-30T09:07:36.940Z,20.80
2022-07-30T09:10:05.943Z,22.52
2022-07-30T09:12:45.021Z,20.70
2022-07-30T09:15:20.579Z,19.10
2022-07-30T09:18:07.645Z,21.00
2022-07-30T09:20:46.804Z,23.83
2022-07-30T09:23:41.708Z,20.58
2022-07-30T09:26:21.025Z,22.05
2022-07-30T09:28:50.137Z,27.35
2022-07-30T09:31:18.832Z,26.83
2022-07-30T09:33:48.972Z,23.63
2022-07-30T09:36:20.341Z,27.00
2022-07-30T09:39:10.953Z,26.67
2022-07-30T09:41:40.019Z,30.35
2022-07-30T09:44:08.013Z,30.92
2022-07-30T09:46:53.768Z,35.28
2022-07-30T09:49:27.210Z,32.83
2022-07-30T09:52:07.801Z,29.67
2022-07-30T09:55:00.431Z,28.50
2022-07-30T09:57:28.532Z,25.40
2022-07-30T10:00:01.757Z,28.90
2022-07-30T10:03:00.918Z,25.30
2022-07-30T10:05:50.708Z,26.30
2022-07-30T10:08:20.371Z,27.17
2022-07-30T10:11:09.541Z,28.42
2022-07-30T10:13:45.761Z,29.40
2022-07-30T10:16:21.863Z,31.17
2022-07-30T10:19:03.632Z,31.38
2022-07-30T10:21:43.404Z,29.13
2022-07-30T10:24:12.824Z,28.60
2022-07-30T10:26:42.903Z,26.45
2022-07-30T10:29:18.799Z,25.90
2022-07-30T10:32:04.179Z,24.85
2022-07-30T10:34:42.626Z,24.30
2022-07-30T10:37:12.789Z,27.80
2022-07-30T10:40:10.860Z,24.60
2022-07-30T10:43:02.696Z,22.25
2022-07-30T10:46:09.287Z,22.35
2022-07-30T10:49:19.544Z,25.25
2022-07-30T10:52:18.368Z,21.73
2022-07-30T10:55:12.800Z,22.65
2022-07-30T10:58:03.952Z,24.00
2022-07-30T11:00:57.266Z,22.42
2022-07-30T11:03:41.014Z,20.52
2022-07-30T11:06:16.368Z,20.73
2022-07-30T11:08:48.073Z,20.35
2022-07-30T11:12:01.624Z,22.98
2022-07-30T11:14:10.634Z,18.10
2022-07-30T11:16:38.626Z,20.42
2022-07-30T11:19:56.662Z,20.00
2022-07-30T11:22:25.656Z,18.50
2022-07-30T11:24:55.193Z,35.25
2022-07-30T11:27:42.393Z,28.17
2022-07-30T11:30:23.562Z,24.77
2022-07-30T11:33:15.774Z,21.98
2022-07-30T11:35:45.005Z,19.58
2022-07-30T11:38:18.948Z,18.42
2022-07-30T11:40:46.229Z,17.33
2022-07-30T11:43:36.190Z,15.80
2022-07-30T11:46:28.507Z,16.65
2022-07-30T11:49:00.688Z,15.30
2022-07-30T11:51:45.741Z,16.95
2022-07-30T11:54:14.312Z,18.08
2022-07-30T11:57:24.583Z,15.13
2022-07-30T12:00:24.826Z,16.48
2022-07-30T12:03:03.819Z,17.77
2022-07-30T12:05:40.708Z,18.15
2022-07-30T12:08:08.678Z,18.90
2022-07-30T12:11:01.603Z,19.08
2022-07-30T12:13:45.083Z,16.77
2022-07-30T12:16:17.999Z,16.65
2022-07-30T12:18:53.594Z,17.00
2022-07-30T12:21:21.814Z,16.77
2022-07-30T12:24:01.070Z,16.00
2022-07-30T12:26:36.859Z,24.13
2022-07-30T12:29:14.797Z,17.00
2022-07-30T12:31:46.557Z,16.88
2022-07-30T12:34:35.154Z,17.98
2022-07-30T12:37:15.564Z,17.67
2022-07-30T12:39:44.891Z,16.13
2022-07-30T12:43:00.453Z,17.50
2022-07-30T12:45:51.538Z,41.50
2022-07-30T12:48:34.752Z,18.80
2022-07-30T12:51:09.148Z,18.38
2022-07-30T12:53:37.560Z,18.25
2022-07-30T12:56:16.588Z,17.60
2022-07-30T12:58:48.796Z,18.25
2022-07-30T13:01:39.606Z,17.25
2022-07-30T13:04:10.779Z,17.55
2022-07-30T13:06:42.827Z,18.30
2022-07-30T13:09:22.519Z,19.92
2022-07-30T13:11:51.627Z,20.15
2022-07-30T13:14:37.928Z,21.40
2022-07-30T13:17:07.615Z,21.20
2022-07-30T13:19:37.105Z,21.52
2022-07-30T13:22:13.779Z,22.17
2022-07-30T13:24:41.930Z,21.65
2022-07-30T13:27:10.105Z,22.77
2022-07-30T13:29:37.080Z,24.50
2022-07-30T13:32:04.577Z,23.75
2022-07-30T13:34:31.802Z,22.67
2022-07-30T13:37:02.085Z,25.85
2022-07-30T13:39:31.324Z,24.58
2022-07-30T13:42:04.934Z,23.70
2022-07-30T13:44:32.181Z,24.88
2022-07-30T13:47:08.826Z,24.77
2022-07-30T13:49:39.335Z,25.27
2022-07-30T13:52:06.594Z,24.55
2022-07-30T13:54:34.815Z,24.60
2022-07-30T13:57:04.404Z,25.02
2022-07-30T13:59:31.764Z,24.90
2022-07-30T14:02:06.600Z,22.65
2022-07-30T14:04:35.912Z,25.45
2022-07-30T14:07:06.175Z,25.63
2022-07-30T14:09:33.458Z,23.10
2022-07-30T14:12:12.699Z,25.00
2022-07-30T14:14:40.123Z,23.02
2022-07-30T14:17:08.428Z,22.85
2022-07-30T14:19:56.258Z,23.90
2022-07-30T14:22:24.401Z,23.42
2022-07-30T14:24:51.471Z,23.55
2022-07-30T14:27:20.752Z,23.88
2022-07-30T14:29:50.875Z,24.67
2022-07-30T14:32:18.617Z,21.98
2022-07-30T14:34:49.216Z,22.15
2022-07-30T14:37:20.372Z,22.58
2022-07-30T14:39:49.454Z,23.45
2022-07-30T14:42:25.867Z,24.35
2022-07-30T14:44:56.964Z,23.58
2022-07-30T14:47:24.370Z,24.58
2022-07-30T14:50:13.889Z,23.52
2022-07-30T14:53:00.299Z,24.83
2022-07-30T14:55:31.449Z,22.77
2022-07-30T14:58:08.013Z,24.58
2022-07-30T15:04:15.786Z,23.95
2022-07-30T15:06:43.479Z,24.27
2022-07-30T15:09:10.941Z,24.08
2022-07-30T15:12:08.772Z,23.77
2022-07-30T15:14:30.975Z,24.00
2022-07-30T15:17:04.554Z,24.00
2022-07-30T15:19:32.611Z,23.40
2022-07-30T15:22:31.772Z,24.88
2022-07-30T15:25:00.768Z,25.52
2022-07-30T15:27:34.087Z,25.77
2022-07-30T15:32:37.751Z,23.20
2022-07-30T15:35:10.601Z,22.70
2022-07-30T15:37:41.383Z,22.95
2022-07-30T15:40:08.768Z,23.13
2022-07-30T15:42:35.915Z,23.08
2022-07-30T15:45:17.234Z,22.90
2022-07-30T15:47:45.476Z,25.02
2022-07-30T15:50:13.882Z,22.73
2022-07-30T15:52:41.069Z,26.00
2022-07-30T15:55:09.924Z,24.42
2022-07-30T15:57:37.126Z,24.98
2022-07-30T16:00:08.097Z,25.33
2022-07-30T16:02:38.213Z,25.63
2022-07-30T16:05:09.497Z,26.52
2022-07-30T16:07:41.974Z,25.27
2022-07-30T16:10:10.360Z,25.85
2022-07-30T16:12:37.404Z,24.90
2022-07-30T16:15:07.350Z,25.73
2022-07-30T16:17:37.214Z,25.95
2022-07-30T16:20:10.735Z,25.63
2022-07-30T16:22:44.082Z,36.97
2022-07-30T16:25:11.873Z,23.70
2022-07-30T16:27:39.024Z,22.80
2022-07-30T16:30:29.575Z,23.80
2022-07-30T16:33:18.841Z,24.02
2022-07-30T16:35:58.057Z,23.80
2022-07-30T16:38:33.092Z,23.40
2022-07-30T16:41:25.317Z,23.90
2022-07-30T16:43:52.326Z,22.75
2022-07-30T16:46:25.668Z,24.13
2022-07-30T16:48:55.971Z,21.48
2022-07-30T16:51:53.469Z,22.10
2022-07-30T16:54:28.740Z,20.70
2022-07-30T16:57:03.985Z,21.88
2022-07-30T16:59:37.518Z,25.02
2022-07-30T17:02:08.737Z,23.63
2022-07-30T17:04:56.046Z,25.48
2022-07-30T17:07:26.165Z,26.25
2022-07-30T17:09:53.974Z,20.10
2022-07-30T17:12:40.309Z,18.88
2022-07-30T17:15:17.122Z,19.40
2022-07-30T17:18:06.049Z,16.95
2022-07-30T17:20:43.172Z,18.80
2022-07-30T17:23:24.724Z,18.13
2022-07-30T17:26:15.761Z,19.05
2022-07-30T17:28:53.854Z,18.95
2022-07-30T17:31:25.908Z,19.52
2022-07-30T17:33:59.762Z,18.10
2022-07-30T17:39:06.528Z,18.52
2022-07-30T17:41:58.956Z,21.02
2022-07-30T17:44:56.579Z,19.85
2022-07-30T17:47:25.670Z,20.23
2022-07-30T17:49:53.722Z,21.27
2022-07-30T17:52:35.222Z,22.02
2022-07-30T17:55:03.418Z,23.83
2022-07-30T17:57:57.516Z,21.27
2022-07-30T18:00:32.184Z,21.58
2022-07-30T18:03:09.609Z,22.10
2022-07-30T18:05:51.331Z,24.67
2022-07-30T18:08:20.394Z,22.17
2022-07-30T18:10:50.595Z,23.67
2022-07-30T18:13:26.651Z,21.50
2022-07-30T18:16:28.882Z,22.83
2022-07-30T18:18:56.299Z,22.90
2022-07-30T18:21:38.507Z,22.27
2022-07-30T18:24:17.968Z,21.75
2022-07-30T18:27:01.160Z,20.20
2022-07-30T18:29:34.614Z,19.80
2022-07-30T18:32:06.303Z,18.25
2022-07-30T18:35:12.042Z,20.65
2022-07-30T18:37:41.757Z,19.38
2022-07-30T18:40:12.089Z,19.38
2022-07-30T18:42:59.564Z,19.15
2022-07-30T18:45:37.083Z,18.88
2022-07-30T18:48:05.039Z,18.05
2022-07-30T18:50:47.091Z,18.98
2022-07-30T18:53:36.869Z,18.65
2022-07-30T18:56:20.580Z,18.65
2022-07-30T18:59:01.516Z,19.42
2022-07-30T19:01:39.445Z,18.83
2022-07-30T19:04:32.221Z,18.35
2022-07-30T19:07:01.518Z,17.42
2022-07-30T19:09:28.687Z,19.15
2022-07-30T19:12:14.263Z,17.05
2022-07-30T19:14:57.278Z,14.73
2022-07-30T19:18:28.134Z,16.70
2022-07-30T19:21:32.302Z,18.10
2022-07-30T19:24:00.526Z,15.85
2022-07-30T19:26:28.253Z,14.52
2022-07-30T19:28:57.780Z,13.80
2022-07-30T19:31:26.529Z,13.82
2022-07-30T19:34:01.830Z,14.65
2022-07-30T19:36:37.463Z,13.25
2022-07-30T19:39:07.444Z,13.63
2022-07-30T19:41:41.597Z,14.10
2022-07-30T19:44:11.700Z,14.27
2022-07-30T19:46:41.426Z,14.68
2022-07-30T19:49:11.419Z,14.65
2022-07-30T19:52:10.747Z,12.73
2022-07-30T19:54:38.829Z,13.80
2022-07-30T19:57:06.111Z,12.45
2022-07-30T19:59:55.807Z,11.07
2022-07-30T20:02:22.703Z,10.90
2022-07-30T20:04:51.787Z,10.18
2022-07-30T20:07:18.860Z,9.50
2022-07-30T20:09:48.639Z,9.32
2022-07-30T20:12:21.451Z,10.98
2022-07-30T20:14:53.356Z,9.20
2022-07-30T20:17:20.558Z,10.43
2022-07-30T20:19:48.867Z,10.35
2022-07-30T20:22:20.595Z,10.88
2022-07-30T20:24:49.109Z,9.93
2022-07-30T20:27:36.073Z,10.45
2022-07-30T20:30:17.501Z,10.27
2022-07-30T20:32:53.736Z,10.35
2022-07-30T20:35:28.293Z,10.65
2022-07-30T20:38:10.400Z,10.60
2022-07-30T20:40:47.659Z,9.80
2022-07-30T20:43:19.055Z,10.27
2022-07-30T20:45:50.616Z,10.30
2022-07-30T20:48:31.454Z,8.77
2022-07-30T20:51:09.531Z,8.68
2022-07-30T20:53:37.714Z,10.55
2022-07-30T20:56:05.059Z,10.85
2022-07-30T20:58:33.105Z,10.82
2022-07-30T21:01:00.863Z,11.35
2022-07-30T21:03:32.025Z,11.52
2022-07-30T21:06:14.854Z,11.52
2022-07-30T21:08:41.823Z,10.95
2022-07-30T21:11:09.609Z,10.18
2022-07-30T21:14:06.577Z,10.90
2022-07-30T21:16:39.580Z,10.82
2022-07-30T21:19:26.044Z,10.52
2022-07-30T21:22:14.560Z,11.15
2022-07-30T21:24:45.702Z,9.70
2022-07-30T21:27:41.404Z,9.45
2022-07-30T21:30:10.933Z,9.23
2022-07-30T21:33:15.186Z,8.27
2022-07-30T21:36:33.293Z,7.53
2022-07-30T21:39:29.305Z,8.43
2022-07-30T21:41:59.301Z,7.97
2022-07-30T21:44:27.524Z,7.65
2022-07-30T21:47:00.771Z,7.38
2022-07-30T21:52:49.738Z,7.20
2022-07-30T21:55:21.514Z,8.20
2022-07-30T21:57:50.798Z,7.57
2022-07-30T22:00:50.351Z,7.35
2022-07-30T22:04:04.311Z,7.25
2022-07-30T22:06:54.798Z,7.35
2022-07-30T22:09:34.435Z,8.30
2022-07-30T22:13:07.486Z,9.90
2022-07-30T22:16:38.517Z,11.82
2022-07-30T22:19:15.867Z,13.70
2022-07-30T22:22:26.646Z,17.30
2022-07-30T22:25:01.611Z,17.95
2022-07-30T22:27:39.969Z,15.05
2022-07-30T22:30:18.558Z,12.05
2022-07-30T22:32:46.829Z,12.95
2022-07-30T22:35:17.010Z,11.13
2022-07-30T22:37:49.991Z,13.38
2022-07-30T22:40:16.940Z,13.70
2022-07-30T22:42:49.536Z,15.02
2022-07-30T22:45:17.204Z,16.67
2022-07-30T22:48:10.072Z,15.52
2022-07-30T22:53:23.439Z,12.55
2022-07-30T22:55:55.081Z,13.10
2022-07-30T22:58:29.696Z,13.80
2022-07-30T23:00:56.781Z,9.40
2022-07-30T23:03:43.506Z,11.10
2022-07-30T23:06:14.667Z,9.68
2022-07-30T23:08:43.281Z,6.93
2022-07-30T23:11:11.619Z,5.78
2022-07-30T23:13:47.928Z,6.93
2022-07-30T23:16:16.904Z,5.40
2022-07-30T23:18:49.044Z,5.13
2022-07-30T23:21:32.211Z,4.00
2022-07-30T23:24:47.931Z,3.80
2022-07-30T23:27:17.147Z,3.67
2022-07-30T23:30:11.483Z,3.33
2022-07-30T23:35:21.029Z,2.78
2022-07-30T23:38:00.307Z,4.88
2022-07-30T23:40:35.935Z,3.05
2022-07-30T23:43:32.054Z,3.58
2022-07-30T23:46:00.574Z,3.05
2022-07-30T23:48:44.197Z,2.80
2022-07-30T23:51:12.283Z,2.25
2022-07-30T23:53:41.493Z,2.95
2022-07-30T23:56:16.969Z,3.20
2022-07-30T23:58:48.747Z,3.28
